createdAt,value
2022-10-02T00:01:30.837Z,26.63
2022-10-02T00:05:01.700Z,19.75
2022-10-02T00:08:10.333Z,26.95
2022-10-02T00:11:45.271Z,26.77
2022-10-02T00:14:50.580Z,22.63
2022-10-02T00:17:55.857Z,29.08
2022-10-02T00:21:00.301Z,22.02
2022-10-02T00:24:04.811Z,29.25
2022-10-02T00:27:21.602Z,24.23
2022-10-02T00:30:23.507Z,25.58
2022-10-02T00:33:51.765Z,24.60
2022-10-02T00:37:05.526Z,26.45
2022-10-02T00:43:30.251Z,26.23
2022-10-02T00:46:56.783Z,21.05
2022-10-02T00:50:08.933Z,32.05
2022-10-02T00:53:50.410Z,29.00
2022-10-02T00:57:13.590Z,36.67
2022-10-02T01:00:20.744Z,27.75
2022-10-02T01:03:31.851Z,30.73
2022-10-02T01:06:34.043Z,25.23
2022-10-02T01:09:37.757Z,21.15
2022-10-02T01:12:41.005Z,26.98
2022-10-02T01:15:52.928Z,31.05
2022-10-02T01:18:54.694Z,23.92
2022-10-02T01:22:17.376Z,25.77
2022-10-02T01:25:19.177Z,27.60
2022-10-02T01:28:22.380Z,18.98
2022-10-02T01:31:24.882Z,29.20
2022-10-02T01:34:27.423Z,25.13
2022-10-02T01:37:35.211Z,27.40
2022-10-02T01:40:39.065Z,20.92
2022-10-02T01:43:52.505Z,23.10
2022-10-02T01:47:03.434Z,26.52
2022-10-02T01:50:48.219Z,28.75
2022-10-02T01:54:20.115Z,20.08
2022-10-02T01:57:25.265Z,23.80
2022-10-02T02:00:30.342Z,28.13
2022-10-02T02:03:49.753Z,24.75
2022-10-02T02:07:00.510Z,20.27
2022-10-02T02:10:08.130Z,22.55
2022-10-02T02:13:40.441Z,20.90
2022-10-02T02:16:44.225Z,19.00
2022-10-02T02:20:06.119Z,27.63
2022-10-02T02:23:15.580Z,24.27
2022-10-02T02:26:19.474Z,23.75
2022-10-02T02:29:24.527Z,24.00
2022-10-02T02:32:30.346Z,22.50
2022-10-02T02:35:37.807Z,30.13
2022-10-02T02:38:45.972Z,18.63
2022-10-02T02:41:53.021Z,17.90
2022-10-02T02:45:01.213Z,25.70
2022-10-02T02:48:08.556Z,27.90
2022-10-02T02:51:21.737Z,21.17
2022-10-02T02:54:31.036Z,19.63
2022-10-02T02:57:44.389Z,24.52
2022-10-02T03:00:46.777Z,23.52
2022-10-02T03:03:48.615Z,25.73
2022-10-02T03:06:57.311Z,19.35
2022-10-02T03:10:08.731Z,16.65
2022-10-02T03:13:16.508Z,22.70
2022-10-02T03:17:00.217Z,22.83
2022-10-02T03:20:10.829Z,17.33
2022-10-02T03:23:51.200Z,21.58
2022-10-02T03:27:02.337Z,21.73
2022-10-02T03:30:08.527Z,19.30
2022-10-02T03:33:14.905Z,21.15
2022-10-02T03:36:21.110Z,24.95
2022-10-02T03:39:25.624Z,19.75
2022-10-02T03:42:33.237Z,19.50
2022-10-02T03:45:51.912Z,16.58
2022-10-02T03:48:56.547Z,22.58
2022-10-02T03:51:58.285Z,18.45
2022-10-02T03:55:03.848Z,15.38
2022-10-02T03:58:15.027Z,16.52
2022-10-02T04:01:28.888Z,14.07
2022-10-02T04:04:47.863Z,18.38
2022-10-02T04:07:53.662Z,10.57
2022-10-02T04:11:07.936Z,15.27
2022-10-02T04:14:17.511Z,12.98
2022-10-02T04:17:27.427Z,14.38
2022-10-02T04:20:41.682Z,12.57
2022-10-02T04:23:53.024Z,19.17
2022-10-02T04:27:07.052Z,17.75
2022-10-02T04:30:16.788Z,15.43
2022-10-02T04:33:22.159Z,12.40
2022-10-02T04:36:31.160Z,20.27
2022-10-02T04:40:07.950Z,17.13
2022-10-02T04:43:30.638Z,10.80
2022-10-02T04:46:35.737Z,16.50
2022-10-02T04:50:07.836Z,12.18
2022-10-02T04:53:20.621Z,11.30
2022-10-02T04:56:46.457Z,10.53
2022-10-02T05:00:09.039Z,18.45
2022-10-02T05:03:50.389Z,15.48
2022-10-02T05:07:45.422Z,13.05
2022-10-02T05:11:12.246Z,16.40
2022-10-02T05:14:35.628Z,14.48
2022-10-02T05:17:46.369Z,11.32
2022-10-02T05:21:15.377Z,11.88
2022-10-02T05:24:58.211Z,10.52
2022-10-02T05:28:24.594Z,13.90
2022-10-02T05:31:51.867Z,9.18
2022-10-02T05:34:53.922Z,10.05
2022-10-02T05:37:59.004Z,12.88
2022-10-02T05:41:40.140Z,11.45
2022-10-02T05:45:12.024Z,10.00
2022-10-02T05:48:33.178Z,11.05
2022-10-02T05:51:40.219Z,7.25
2022-10-02T05:55:02.328Z,9.25
2022-10-02T05:58:25.396Z,8.95
2022-10-02T06:01:36.248Z,8.73
2022-10-02T06:04:44.023Z,9.50
2022-10-02T06:07:49.418Z,9.63
2022-10-02T06:10:56.872Z,8.48
2022-10-02T06:14:07.847Z,8.80
2022-10-02T06:17:16.217Z,8.45
2022-10-02T06:20:21.732Z,10.15
2022-10-02T06:23:47.743Z,8.15
2022-10-02T06:27:03.315Z,10.48
2022-10-02T06:30:08.647Z,8.02
2022-10-02T06:33:22.488Z,7.72
2022-10-02T06:36:42.834Z,12.15
2022-10-02T06:40:18.778Z,7.13
2022-10-02T06:43:40.548Z,9.38
2022-10-02T06:46:53.124Z,9.52
2022-10-02T06:50:19.365Z,9.45
2022-10-02T06:53:26.793Z,7.78
2022-10-02T06:56:49.370Z,6.60
2022-10-02T07:00:00.135Z,7.55
2022-10-02T07:03:19.936Z,9.70
2022-10-02T07:06:24.744Z,8.68
2022-10-02T07:09:32.285Z,9.05
2022-10-02T07:13:00.764Z,9.23
2022-10-02T07:16:09.113Z,7.55
2022-10-02T07:19:38.907Z,8.82
2022-10-02T07:23:10.066Z,6.00
2022-10-02T07:26:19.262Z,5.45
2022-10-02T07:29:54.390Z,7.55
2022-10-02T07:33:38.875Z,5.18
2022-10-02T07:37:02.433Z,8.05
2022-10-02T07:40:17.011Z,7.00
2022-10-02T07:43:34.288Z,7.20
2022-10-02T07:46:42.383Z,4.30
2022-10-02T07:49:51.169Z,4.28
2022-10-02T07:52:55.991Z,4.80
2022-10-02T07:55:59.225Z,4.88
2022-10-02T07:59:09.659Z,6.85
2022-10-02T08:02:30.238Z,5.78
2022-10-02T08:05:46.073Z,6.45
2022-10-02T08:08:56.534Z,6.35
2022-10-02T08:12:15.286Z,9.20
2022-10-02T08:15:20.824Z,7.00
2022-10-02T08:18:36.513Z,9.32
2022-10-02T08:21:47.312Z,6.20
2022-10-02T08:25:04.673Z,7.53
2022-10-02T08:28:19.744Z,6.93
2022-10-02T08:31:23.609Z,8.40
2022-10-02T08:34:26.182Z,8.70
2022-10-02T08:37:42.634Z,7.20
2022-10-02T08:41:15.991Z,6.55
2022-10-02T08:44:35.998Z,9.27
2022-10-02T08:48:08.983Z,9.38
2022-10-02T08:51:39.825Z,8.57
2022-10-02T08:54:53.601Z,4.38
2022-10-02T08:58:11.149Z,6.38
2022-10-02T09:01:57.608Z,6.95
2022-10-02T09:05:39.611Z,4.97
2022-10-02T09:08:58.210Z,8.02
2022-10-02T09:12:30.389Z,5.55
2022-10-02T09:16:01.255Z,13.63
2022-10-02T09:19:11.131Z,5.65
2022-10-02T09:22:31.052Z,4.35
2022-10-02T09:25:43.449Z,12.07
2022-10-02T09:29:19.473Z,3.22
2022-10-02T09:32:46.085Z,5.03
2022-10-02T09:36:15.133Z,5.38
2022-10-02T09:39:38.738Z,6.43
2022-10-02T09:42:49.408Z,9.93
2022-10-02T09:46:10.473Z,6.20
2022-10-02T09:49:47.072Z,5.25
2022-10-02T09:53:25.747Z,5.65
2022-10-02T09:57:06.849Z,4.45
2022-10-02T10:00:34.520Z,3.88
2022-10-02T10:04:12.705Z,5.07
2022-10-02T10:07:39.492Z,5.32
2022-10-02T10:10:50.085Z,3.95
2022-10-02T10:14:22.670Z,5.38
2022-10-02T10:18:04.187Z,4.82
2022-10-02T10:21:13.096Z,5.22
2022-10-02T10:24:47.237Z,3.58
2022-10-02T10:30:50.868Z,6.00
2022-10-02T10:34:04.191Z,3.22
2022-10-02T10:37:32.303Z,5.05
2022-10-02T10:41:11.077Z,3.28
2022-10-02T10:44:18.352Z,3.75
2022-10-02T10:47:46.560Z,4.63
2022-10-02T10:51:21.591Z,3.75
2022-10-02T10:54:32.107Z,5.95
2022-10-02T10:57:39.417Z,6.45
2022-10-02T11:00:53.876Z,6.55
2022-10-02T11:04:15.672Z,5.97
2022-10-02T11:07:26.332Z,5.03
2022-10-02T11:10:37.989Z,3.78
2022-10-02T11:14:10.852Z,3.22
2022-10-02T11:17:48.260Z,3.58
2022-10-02T11:21:13.855Z,5.75
2022-10-02T11:24:48.897Z,5.30
2022-10-02T11:28:06.236Z,5.25
2022-10-02T11:31:17.330Z,8.65
2022-10-02T11:35:09.621Z,5.53
2022-10-02T11:38:26.477Z,5.00
2022-10-02T11:41:59.430Z,4.82
2022-10-02T11:45:33.947Z,6.00
2022-10-02T11:48:39.055Z,4.25
2022-10-02T11:51:46.430Z,4.63
2022-10-02T11:54:57.558Z,4.55
2022-10-02T11:58:18.828Z,5.47
2022-10-02T12:01:27.241Z,4.55
2022-10-02T12:04:35.025Z,7.22
2022-10-02T12:07:47.151Z,5.28
2022-10-02T12:10:49.001Z,5.88
2022-10-02T12:14:16.602Z,5.32
2022-10-02T12:17:54.996Z,9.98
2022-10-02T12:21:18.245Z,5.82
2022-10-02T12:25:03.134Z,4.57
2022-10-02T12:28:11.824Z,4.97
2022-10-02T12:31:33.574Z,4.00
2022-10-02T12:34:56.388Z,6.03
2022-10-02T12:38:23.021Z,4.97
2022-10-02T12:41:52.987Z,5.70
2022-10-02T12:45:18.389Z,8.48
2022-10-02T12:48:32.494Z,4.55
2022-10-02T12:51:46.573Z,5.07
2022-10-02T12:55:00.245Z,5.05
2022-10-02T13:01:31.012Z,6.13
2022-10-02T13:04:47.978Z,4.05
2022-10-02T13:08:11.528Z,5.25
2022-10-02T13:11:22.594Z,3.90
2022-10-02T13:14:52.465Z,6.07
2022-10-02T13:18:09.178Z,4.57
2022-10-02T13:21:53.336Z,6.47
2022-10-02T13:25:25.800Z,5.00
2022-10-02T13:28:47.965Z,8.75
2022-10-02T13:32:13.045Z,4.45
2022-10-02T13:35:19.422Z,4.35
2022-10-02T13:38:37.505Z,6.75
2022-10-02T13:42:18.510Z,10.18
2022-10-02T13:45:49.851Z,6.47
2022-10-02T13:49:07.553Z,5.55
2022-10-02T13:52:09.983Z,5.47
2022-10-02T13:55:17.723Z,7.43
2022-10-02T13:58:37.493Z,7.00
2022-10-02T14:02:04.805Z,3.97
2022-10-02T14:05:21.166Z,8.95
2022-10-02T14:08:50.449Z,8.05
2022-10-02T14:12:09.187Z,6.55
2022-10-02T14:15:19.844Z,5.13
2022-10-02T14:18:21.695Z,6.85
2022-10-02T14:21:42.676Z,7.15
2022-10-02T14:25:10.338Z,7.75
2022-10-02T14:28:24.217Z,4.93
2022-10-02T14:31:35.711Z,8.32
2022-10-02T14:35:01.500Z,6.93
2022-10-02T14:38:15.202Z,8.50
2022-10-02T14:44:34.065Z,6.00
2022-10-02T14:47:57.449Z,5.15
2022-10-02T14:51:26.267Z,8.73
2022-10-02T14:54:36.794Z,5.88
2022-10-02T14:57:56.618Z,7.40
2022-10-02T15:01:23.428Z,7.50
2022-10-02T15:04:39.802Z,10.52
2022-10-02T15:07:42.390Z,8.55
2022-10-02T15:10:49.274Z,9.57
2022-10-02T15:14:00.665Z,7.90
2022-10-02T15:17:51.352Z,7.63
2022-10-02T15:20:59.605Z,10.65
2022-10-02T15:24:31.078Z,10.05
2022-10-02T15:28:12.038Z,10.65
2022-10-02T15:31:56.697Z,8.70
2022-10-02T15:35:16.381Z,9.82
2022-10-02T15:38:29.306Z,10.15
2022-10-02T15:42:03.005Z,10.00
2022-10-02T15:45:17.796Z,6.07
2022-10-02T15:48:43.540Z,10.93
2022-10-02T15:51:58.024Z,9.65
2022-10-02T15:55:38.766Z,13.10
2022-10-02T15:59:21.933Z,10.63
2022-10-02T16:02:38.895Z,9.15
2022-10-02T16:05:52.272Z,15.48
2022-10-02T16:09:02.254Z,14.30
2022-10-02T16:12:13.255Z,6.68
2022-10-02T16:15:38.130Z,13.45
2022-10-02T16:19:02.138Z,7.05
2022-10-02T16:22:28.156Z,9.77
2022-10-02T16:25:53.837Z,10.18
2022-10-02T16:29:17.176Z,10.18
2022-10-02T16:32:35.094Z,10.57
2022-10-02T16:35:55.477Z,8.52
2022-10-02T16:39:18.068Z,9.55
2022-10-02T16:42:42.827Z,11.32
2022-10-02T16:45:56.628Z,9.95
2022-10-02T16:49:16.768Z,9.45
2022-10-02T16:56:33.731Z,7.78
2022-10-02T16:59:46.008Z,12.00
2022-10-02T17:03:16.067Z,12.38
2022-10-02T17:06:41.669Z,17.13
2022-10-02T17:09:53.774Z,10.45
2022-10-02T17:13:12.245Z,12.43
2022-10-02T17:16:45.171Z,8.82
2022-10-02T17:20:04.910Z,9.50
2022-10-02T17:23:18.793Z,9.80
2022-10-02T17:26:36.887Z,8.50
2022-10-02T17:29:52.946Z,7.93
2022-10-02T17:33:06.957Z,11.65
2022-10-02T17:36:38.255Z,12.38
2022-10-02T17:40:06.684Z,16.23
2022-10-02T17:43:22.286Z,15.30
2022-10-02T17:47:06.945Z,11.05
2022-10-02T17:50:21.525Z,12.00
2022-10-02T17:53:51.104Z,13.30
2022-10-02T17:57:00.178Z,16.42
2022-10-02T18:00:17.751Z,16.20
2022-10-02T18:03:39.909Z,13.15
2022-10-02T18:07:09.560Z,18.15
2022-10-02T18:10:23.589Z,17.52
2022-10-02T18:13:48.372Z,14.10
2022-10-02T18:17:08.665Z,13.90
2022-10-02T18:20:28.771Z,16.17
2022-10-02T18:23:52.782Z,17.77
2022-10-02T18:27:32.850Z,14.35
2022-10-02T18:31:16.394Z,16.38
2022-10-02T18:34:29.204Z,18.10
2022-10-02T18:38:02.610Z,16.60
2022-10-02T18:41:21.441Z,16.65
2022-10-02T18:44:42.569Z,14.30
2022-10-02T18:48:09.163Z,20.92
2022-10-02T18:51:31.923Z,16.88
2022-10-02T18:54:54.527Z,17.30
2022-10-02T18:58:24.819Z,13.88
2022-10-02T19:01:43.408Z,19.20
2022-10-02T19:04:53.299Z,15.27
2022-10-02T19:08:04.023Z,13.77
2022-10-02T19:11:18.408Z,23.15
2022-10-02T19:14:36.112Z,16.52
2022-10-02T19:17:38.299Z,19.77
2022-10-02T19:20:48.984Z,15.20
2022-10-02T19:24:14.250Z,14.88
2022-10-02T19:27:27.955Z,13.38
2022-10-02T19:33:56.356Z,17.80
2022-10-02T19:37:04.238Z,17.63
2022-10-02T19:40:10.083Z,15.43
2022-10-02T19:43:24.634Z,17.38
2022-10-02T19:46:48.700Z,20.85
2022-10-02T19:49:52.230Z,17.15
2022-10-02T19:53:06.824Z,23.73
2022-10-02T19:56:41.171Z,15.63
2022-10-02T19:59:49.170Z,16.67
2022-10-02T20:02:57.284Z,20.10
2022-10-02T20:06:06.903Z,17.23
2022-10-02T20:09:20.686Z,17.50
2022-10-02T20:12:31.978Z,17.88
2022-10-02T20:16:17.350Z,15.30
2022-10-02T20:19:24.743Z,14.98
2022-10-02T20:22:45.586Z,14.40
2022-10-02T20:26:08.798Z,15.88
2022-10-02T20:29:23.056Z,15.48
2022-10-02T20:32:31.691Z,16.92
2022-10-02T20:35:55.884Z,23.08
2022-10-02T20:39:09.795Z,17.65
2022-10-02T20:42:29.119Z,20.15
2022-10-02T20:45:38.345Z,19.40
2022-10-02T20:49:09.479Z,17.75
2022-10-02T20:52:53.465Z,17.40
2022-10-02T20:56:23.406Z,14.10
2022-10-02T20:59:48.075Z,14.68
2022-10-02T21:03:17.696Z,13.45
2022-10-02T21:06:57.182Z,13.93
2022-10-02T21:10:32.752Z,16.08
2022-10-02T21:13:48.204Z,16.95
2022-10-02T21:17:19.579Z,15.80
2022-10-02T21:20:49.692Z,15.70
2022-10-02T21:24:04.671Z,14.75
2022-10-02T21:27:12.593Z,11.18
2022-10-02T21:30:21.561Z,18.58
2022-10-02T21:33:39.372Z,16.95
2022-10-02T21:36:55.062Z,14.50
2022-10-02T21:40:35.277Z,14.07
2022-10-02T21:44:03.659Z,14.07
2022-10-02T21:47:39.393Z,14.65
2022-10-02T21:51:28.448Z,14.73
2022-10-02T21:55:27.535Z,14.75
2022-10-02T21:58:54.518Z,12.35
2022-10-02T22:02:27.769Z,13.32
2022-10-02T22:05:41.891Z,15.13
2022-10-02T22:09:18.114Z,11.77
2022-10-02T22:12:39.906Z,14.07
2022-10-02T22:15:56.313Z,16.70
2022-10-02T22:19:19.116Z,14.20
2022-10-02T22:22:39.238Z,10.45
2022-10-02T22:26:12.941Z,17.90
2022-10-02T22:29:39.086Z,12.73
2022-10-02T22:33:17.505Z,16.13
2022-10-02T22:36:47.532Z,19.45
2022-10-02T22:40:23.463Z,10.80
2022-10-02T22:44:00.197Z,11.88
2022-10-02T22:47:25.614Z,15.60
2022-10-02T22:50:47.962Z,12.73
2022-10-02T22:54:05.750Z,14.35
2022-10-02T22:57:30.374Z,14.07
2022-10-02T23:00:57.678Z,11.43
2022-10-02T23:04:11.193Z,12.38
2022-10-02T23:07:19.806Z,12.27
2022-10-02T23:10:32.414Z,15.30
2022-10-02T23:13:51.800Z,9.90
2022-10-02T23:17:01.509Z,13.85
2022-10-02T23:20:36.143Z,21.70
2022-10-02T23:24:14.627Z,16.60
2022-10-02T23:27:27.323Z,12.20
2022-10-02T23:30:48.458Z,12.35
2022-10-02T23:34:14.800Z,11.85
2022-10-02T23:37:38.598Z,7.13
2022-10-02T23:41:08.898Z,12.32
2022-10-02T23:44:15.033Z,12.00
2022-10-02T23:47:20.873Z,11.73
2022-10-02T23:50:47.867Z,12.85
2022-10-02T23:54:45.072Z,15.98
